createdAt,value
2022-09-21T00:01:39.469Z,13.88
2022-09-21T00:04:07.449Z,13.87
2022-09-21T00:06:38.274Z,13.84
2022-09-21T00:09:08.240Z,13.80
2022-09-21T00:11:37.249Z,13.76
2022-09-21T00:14:10.565Z,13.73
2022-09-21T00:16:39.253Z,13.69
2022-09-21T00:19:07.857Z,13.67
2022-09-21T00:21:36.029Z,13.65
2022-09-21T00:24:04.407Z,13.60
2022-09-21T00:26:32.904Z,13.58
2022-09-21T00:29:02.856Z,13.52
2022-09-21T00:31:33.020Z,13.48
2022-09-21T00:34:03.443Z,13.44
2022-09-21T00:36:31.399Z,13.43
2022-09-21T00:39:02.083Z,13.41
2022-09-21T00:41:32.140Z,13.38
2022-09-21T00:44:26.168Z,13.35
2022-09-21T00:46:58.027Z,13.29
2022-09-21T00:49:28.525Z,13.27
2022-09-21T00:51:58.291Z,13.23
2022-09-21T00:54:30.496Z,13.23
2022-09-21T00:57:03.052Z,13.19
2022-09-21T00:59:33.589Z,13.16
2022-09-21T01:02:03.107Z,13.12
2022-09-21T01:04:32.142Z,13.08
2022-09-21T01:07:05.810Z,13.05
2022-09-21T01:09:35.613Z,13.02
2022-09-21T01:12:18.867Z,13.00
2022-09-21T01:15:06.302Z,12.99
2022-09-21T01:17:45.240Z,12.97
2022-09-21T01:20:46.439Z,12.95
2022-09-21T01:23:29.106Z,12.90
2022-09-21T01:26:07.896Z,12.86
2022-09-21T01:29:08.079Z,12.85
2022-09-21T01:31:42.077Z,12.81
2022-09-21T01:34:16.607Z,12.78
2022-09-21T01:36:48.599Z,12.75
2022-09-21T01:39:20.804Z,12.73
2022-09-21T01:41:52.172Z,12.70
2022-09-21T01:44:24.702Z,12.67
2022-09-21T01:46:54.373Z,12.65
2022-09-21T01:49:28.065Z,12.59
2022-09-21T01:52:01.865Z,12.55
2022-09-21T01:54:35.458Z,12.52
2022-09-21T01:57:10.418Z,12.51
2022-09-21T01:59:47.672Z,12.51
2022-09-21T02:02:21.014Z,12.51
2022-09-21T02:04:49.312Z,12.49
2022-09-21T02:07:18.141Z,12.48
2022-09-21T02:09:47.553Z,12.47
2022-09-21T02:12:19.194Z,12.47
2022-09-21T02:14:50.390Z,12.44
2022-09-21T02:17:34.424Z,12.43
2022-09-21T02:20:10.885Z,12.42
2022-09-21T02:22:46.692Z,12.42
2022-09-21T02:25:19.669Z,12.42
2022-09-21T02:27:55.338Z,12.43
2022-09-21T02:30:26.605Z,12.42
2022-09-21T02:33:01.909Z,12.40
2022-09-21T02:35:37.180Z,12.37
2022-09-21T02:38:12.112Z,12.37
2022-09-21T02:40:44.674Z,12.34
2022-09-21T02:43:20.774Z,12.33
2022-09-21T02:45:55.301Z,12.30
2022-09-21T02:48:29.101Z,12.26
2022-09-21T02:51:01.268Z,12.25
2022-09-21T02:53:32.962Z,12.22
2022-09-21T02:56:02.952Z,12.21
2022-09-21T02:58:32.871Z,12.19
2022-09-21T03:01:03.019Z,12.16
2022-09-21T03:03:31.791Z,12.14
2022-09-21T03:05:59.935Z,12.12
2022-09-21T03:08:27.811Z,12.11
2022-09-21T03:10:55.703Z,12.10
2022-09-21T03:13:23.546Z,12.09
2022-09-21T03:15:51.648Z,12.08
2022-09-21T03:18:21.060Z,12.07
2022-09-21T03:20:49.080Z,12.05
2022-09-21T03:23:16.932Z,12.04
2022-09-21T03:25:46.219Z,12.02
2022-09-21T03:28:14.626Z,12.02
2022-09-21T03:30:42.992Z,12.01
2022-09-21T03:33:12.914Z,12.00
2022-09-21T03:35:42.682Z,11.98
2022-09-21T03:38:10.974Z,11.96
2022-09-21T03:40:39.121Z,11.96
2022-09-21T03:43:07.126Z,11.92
2022-09-21T03:45:34.979Z,11.91
2022-09-21T03:48:03.228Z,11.90
2022-09-21T03:50:31.470Z,11.88
2022-09-21T03:53:00.937Z,11.87
2022-09-21T03:55:29.842Z,11.87
2022-09-21T03:57:57.766Z,11.87
2022-09-21T04:00:26.039Z,11.86
2022-09-21T04:02:54.226Z,11.84
2022-09-21T04:05:22.267Z,11.82
2022-09-21T04:07:50.229Z,11.78
2022-09-21T04:10:23.516Z,11.78
2022-09-21T04:12:52.170Z,11.78
2022-09-21T04:15:20.846Z,11.77
2022-09-21T04:17:52.261Z,11.75
2022-09-21T04:20:20.799Z,11.75
2022-09-21T04:22:48.895Z,11.72
2022-09-21T04:25:17.346Z,11.71
2022-09-21T04:27:48.353Z,11.70
2022-09-21T04:30:20.521Z,11.69
2022-09-21T04:32:48.472Z,11.69
2022-09-21T04:35:16.644Z,11.66
2022-09-21T04:37:44.559Z,11.65
2022-09-21T04:40:12.464Z,11.60
2022-09-21T04:42:40.371Z,11.57
2022-09-21T04:45:11.129Z,11.55
2022-09-21T04:47:39.033Z,11.50
2022-09-21T04:50:08.171Z,11.47
2022-09-21T04:52:36.617Z,11.45
2022-09-21T04:55:05.097Z,11.44
2022-09-21T04:57:33.025Z,11.43
2022-09-21T05:00:00.980Z,11.42
2022-09-21T05:02:30.435Z,11.42
2022-09-21T05:04:58.321Z,11.40
2022-09-21T05:07:26.165Z,11.37
2022-09-21T05:10:05.172Z,11.36
2022-09-21T05:12:34.105Z,11.35
2022-09-21T05:15:01.971Z,11.36
2022-09-21T05:17:31.266Z,11.34
2022-09-21T05:19:59.257Z,11.34
2022-09-21T05:22:27.250Z,11.34
2022-09-21T05:24:55.764Z,11.31
2022-09-21T05:27:23.748Z,11.29
2022-09-21T05:29:52.300Z,11.28
2022-09-21T05:32:26.869Z,11.28
2022-09-21T05:35:08.603Z,11.28
2022-09-21T05:37:48.403Z,11.29
2022-09-21T05:40:17.057Z,11.31
2022-09-21T05:42:45.748Z,11.30
2022-09-21T05:45:18.987Z,11.29
2022-09-21T05:47:58.017Z,11.27
2022-09-21T05:50:35.315Z,11.24
2022-09-21T05:53:19.110Z,11.25
2022-09-21T05:55:56.535Z,11.25
2022-09-21T05:58:33.159Z,11.25
2022-09-21T06:01:19.871Z,11.27
2022-09-21T06:03:49.885Z,11.26
2022-09-21T06:06:20.493Z,11.25
2022-09-21T06:08:48.419Z,11.22
2022-09-21T06:11:16.341Z,11.23
2022-09-21T06:13:44.319Z,11.22
2022-09-21T06:16:12.636Z,11.23
2022-09-21T06:18:41.190Z,11.25
2022-09-21T06:21:09.936Z,11.23
2022-09-21T06:23:39.318Z,11.23
2022-09-21T06:26:07.250Z,11.23
2022-09-21T06:28:35.337Z,11.24
2022-09-21T06:31:03.472Z,11.26
2022-09-21T06:33:31.789Z,11.28
2022-09-21T06:36:00.923Z,11.30
2022-09-21T06:38:32.241Z,11.34
2022-09-21T06:41:05.456Z,11.37
2022-09-21T06:43:36.610Z,11.38
2022-09-21T06:46:05.219Z,11.41
2022-09-21T06:48:34.742Z,11.43
2022-09-21T06:51:04.809Z,11.45
2022-09-21T06:53:34.421Z,11.50
2022-09-21T06:56:04.980Z,11.51
2022-09-21T06:58:34.250Z,11.55
2022-09-21T07:01:07.140Z,11.60
2022-09-21T07:03:35.828Z,11.67
2022-09-21T07:06:03.743Z,11.73
2022-09-21T07:11:21.016Z,11.89
2022-09-21T07:13:49.151Z,12.00
2022-09-21T07:16:17.026Z,12.09
2022-09-21T07:18:44.898Z,12.17
2022-09-21T07:21:14.845Z,12.21
2022-09-21T07:23:42.797Z,12.24
2022-09-21T07:26:13.115Z,12.27
2022-09-21T07:28:42.615Z,12.29
2022-09-21T07:31:14.009Z,12.32
2022-09-21T07:33:42.829Z,12.35
2022-09-21T07:36:11.885Z,12.38
2022-09-21T07:38:41.046Z,12.42
2022-09-21T07:41:09.426Z,12.45
2022-09-21T07:43:39.339Z,12.49
2022-09-21T07:46:09.476Z,12.53
2022-09-21T07:48:37.753Z,12.55
2022-09-21T07:51:08.026Z,12.58
2022-09-21T07:53:36.587Z,12.60
2022-09-21T07:56:05.193Z,12.64
2022-09-21T07:58:50.878Z,12.67
2022-09-21T08:01:20.219Z,12.70
2022-09-21T08:03:50.355Z,12.71
2022-09-21T08:06:19.155Z,12.72
2022-09-21T08:08:48.285Z,12.75
2022-09-21T08:11:17.174Z,12.80
2022-09-21T08:13:45.368Z,12.83
2022-09-21T08:16:13.499Z,12.89
2022-09-21T08:18:43.698Z,12.93
2022-09-21T08:21:12.545Z,13.00
2022-09-21T08:23:42.839Z,13.06
2022-09-21T08:26:16.509Z,13.13
2022-09-21T08:28:44.526Z,13.18
2022-09-21T08:31:12.384Z,13.23
2022-09-21T08:33:40.279Z,13.27
2022-09-21T08:36:10.962Z,13.32
2022-09-21T08:38:40.417Z,13.37
2022-09-21T08:41:44.002Z,13.47
2022-09-21T08:44:16.982Z,13.51
2022-09-21T08:46:46.035Z,13.55
2022-09-21T08:49:18.148Z,13.61
2022-09-21T08:51:51.618Z,13.65
2022-09-21T08:54:26.377Z,13.69
2022-09-21T08:57:04.986Z,13.74
2022-09-21T08:59:35.231Z,13.78
2022-09-21T09:02:19.273Z,13.82
2022-09-21T09:04:55.243Z,13.85
2022-09-21T09:07:38.905Z,13.90
2022-09-21T09:10:21.618Z,13.96
2022-09-21T09:13:02.400Z,14.03
2022-09-21T09:15:49.093Z,14.08
2022-09-21T09:18:24.366Z,14.13
2022-09-21T09:20:59.223Z,14.20
2022-09-21T09:23:34.122Z,14.25
2022-09-21T09:26:08.926Z,14.32
2022-09-21T09:28:43.976Z,14.37
2022-09-21T09:31:18.444Z,14.46
2022-09-21T09:33:53.237Z,14.53
2022-09-21T09:36:40.219Z,14.61
2022-09-21T09:39:14.356Z,14.69
2022-09-21T09:42:16.574Z,14.78
2022-09-21T09:45:01.625Z,14.87
2022-09-21T09:47:42.977Z,14.95
2022-09-21T09:50:14.537Z,15.02
2022-09-21T09:52:42.529Z,15.10
2022-09-21T09:55:20.065Z,15.19
2022-09-21T09:57:49.415Z,15.27
2022-09-21T10:00:19.946Z,15.36
2022-09-21T10:02:50.109Z,15.45
2022-09-21T10:05:24.132Z,15.55
2022-09-21T10:07:53.596Z,15.64
2022-09-21T10:10:34.512Z,15.72
2022-09-21T10:13:15.420Z,15.82
2022-09-21T10:15:46.881Z,15.89
2022-09-21T10:18:22.034Z,15.98
2022-09-21T10:20:56.742Z,16.05
2022-09-21T10:23:25.950Z,16.11
2022-09-21T10:26:02.147Z,16.17
2022-09-21T10:28:31.090Z,16.25
2022-09-21T10:31:19.565Z,16.32
2022-09-21T10:33:55.802Z,16.39
2022-09-21T10:36:29.397Z,16.45
2022-09-21T10:38:58.220Z,16.53
2022-09-21T10:41:27.541Z,16.60
2022-09-21T10:43:55.510Z,16.65
2022-09-21T10:46:35.224Z,16.71
2022-09-21T10:49:03.999Z,16.76
2022-09-21T10:51:34.880Z,16.81
2022-09-21T10:54:08.596Z,16.89
2022-09-21T10:56:38.074Z,16.97
2022-09-21T10:59:14.135Z,17.09
2022-09-21T11:01:46.951Z,17.25
2022-09-21T11:04:21.399Z,17.46
2022-09-21T11:06:53.332Z,17.66
2022-09-21T11:09:27.825Z,17.83
2022-09-21T11:12:04.161Z,18.01
2022-09-21T11:14:45.891Z,18.13
2022-09-21T11:17:21.215Z,18.18
2022-09-21T11:19:55.581Z,18.21
2022-09-21T11:22:40.849Z,18.21
2022-09-21T11:25:28.770Z,18.27
2022-09-21T11:28:05.485Z,18.45
2022-09-21T11:30:48.709Z,18.68
2022-09-21T11:33:30.229Z,18.87
2022-09-21T11:36:07.335Z,19.07
2022-09-21T11:38:48.334Z,19.35
2022-09-21T11:41:51.117Z,19.65
2022-09-21T11:44:38.260Z,19.81
2022-09-21T11:47:19.063Z,19.91
2022-09-21T11:50:31.115Z,20.07
2022-09-21T11:53:14.585Z,20.24
2022-09-21T11:56:03.246Z,20.34
2022-09-21T11:58:39.785Z,20.47
2022-09-21T12:01:20.771Z,20.55
2022-09-21T12:04:15.126Z,20.67
2022-09-21T12:06:57.057Z,20.75
2022-09-21T12:09:45.269Z,20.90
2022-09-21T12:12:18.241Z,20.96
2022-09-21T12:14:57.272Z,21.01
2022-09-21T12:17:35.608Z,21.05
2022-09-21T12:20:10.102Z,21.04
2022-09-21T12:22:42.541Z,21.11
2022-09-21T12:25:17.176Z,21.23
2022-09-21T12:27:50.259Z,21.39
2022-09-21T12:30:21.048Z,21.49
2022-09-21T12:32:58.941Z,21.57
2022-09-21T12:35:31.993Z,21.53
2022-09-21T12:38:06.382Z,21.35
2022-09-21T12:40:43.720Z,21.30
2022-09-21T12:43:24.218Z,21.57
2022-09-21T12:45:55.815Z,21.83
2022-09-21T12:48:32.482Z,22.05
2022-09-21T12:51:08.184Z,22.10
2022-09-21T12:53:38.977Z,22.03
2022-09-21T12:56:11.854Z,21.89
2022-09-21T12:58:50.790Z,21.87
2022-09-21T13:01:28.632Z,21.98
2022-09-21T13:04:14.022Z,22.09
2022-09-21T13:07:03.110Z,22.12
2022-09-21T13:09:32.760Z,22.17
2022-09-21T13:12:04.468Z,22.25
2022-09-21T13:14:36.350Z,22.37
2022-09-21T13:17:06.890Z,22.45
2022-09-21T13:19:37.195Z,22.37
2022-09-21T13:22:19.819Z,22.27
2022-09-21T13:25:03.269Z,22.00
2022-09-21T13:28:13.632Z,21.98
2022-09-21T13:30:43.640Z,21.89
2022-09-21T13:33:39.805Z,21.95
2022-09-21T13:36:32.503Z,21.99
2022-09-21T13:39:17.237Z,21.71
2022-09-21T13:42:02.486Z,21.53
2022-09-21T13:44:42.369Z,21.47
2022-09-21T13:47:11.432Z,21.51
2022-09-21T13:49:46.720Z,21.40
2022-09-21T13:52:33.682Z,21.23
2022-09-21T13:55:05.588Z,21.09
2022-09-21T13:57:39.299Z,21.11
2022-09-21T14:00:36.955Z,21.18
2022-09-21T14:03:19.215Z,21.36
2022-09-21T14:05:49.217Z,21.73
2022-09-21T14:08:27.397Z,21.87
2022-09-21T14:10:59.264Z,21.80
2022-09-21T14:13:35.480Z,21.89
2022-09-21T14:16:51.987Z,22.16
2022-09-21T14:20:02.869Z,22.02
2022-09-21T14:22:42.541Z,21.53
2022-09-21T14:25:32.378Z,21.03
2022-09-21T14:28:05.857Z,20.69
2022-09-21T14:30:36.804Z,20.70
2022-09-21T14:33:16.290Z,21.22
2022-09-21T14:35:47.414Z,21.41
2022-09-21T14:38:21.004Z,21.21
2022-09-21T14:40:52.506Z,20.91
2022-09-21T14:43:26.530Z,20.85
2022-09-21T14:46:19.167Z,21.25
2022-09-21T14:48:58.634Z,21.26
2022-09-21T14:51:38.294Z,20.92
2022-09-21T14:54:26.121Z,20.58
2022-09-21T14:57:36.530Z,20.29
2022-09-21T15:00:21.094Z,20.13
2022-09-21T15:02:56.573Z,20.01
2022-09-21T15:05:32.137Z,19.95
2022-09-21T15:08:54.787Z,20.37
2022-09-21T15:11:31.425Z,20.84
2022-09-21T15:14:20.019Z,20.77
2022-09-21T15:16:50.991Z,20.86
2022-09-21T15:19:27.278Z,20.73
2022-09-21T15:21:57.388Z,20.48
2022-09-21T15:24:29.548Z,20.38
2022-09-21T15:27:06.955Z,20.65
2022-09-21T15:29:37.538Z,21.05
2022-09-21T15:32:07.401Z,21.47
2022-09-21T15:34:35.314Z,21.73
2022-09-21T15:37:15.553Z,21.83
2022-09-21T15:39:43.523Z,21.87
2022-09-21T15:42:22.967Z,21.90
2022-09-21T15:45:05.990Z,21.88
2022-09-21T15:47:34.699Z,21.78
2022-09-21T15:50:03.279Z,21.54
2022-09-21T15:52:37.215Z,21.35
2022-09-21T15:55:17.980Z,21.09
2022-09-21T15:57:46.138Z,20.84
2022-09-21T16:00:36.840Z,20.59
2022-09-21T16:03:09.912Z,20.40
2022-09-21T16:05:47.679Z,20.19
2022-09-21T16:08:22.689Z,20.05
2022-09-21T16:10:51.244Z,19.92
2022-09-21T16:13:38.086Z,19.76
2022-09-21T16:16:09.482Z,19.62
2022-09-21T16:18:46.884Z,19.48
2022-09-21T16:21:22.980Z,19.41
2022-09-21T16:23:52.834Z,19.52
2022-09-21T16:26:24.634Z,20.12
2022-09-21T16:29:16.578Z,20.80
2022-09-21T16:31:50.142Z,21.31
2022-09-21T16:34:33.082Z,21.73
2022-09-21T16:37:02.752Z,22.13
2022-09-21T16:39:30.626Z,22.43
2022-09-21T16:42:02.458Z,22.66
2022-09-21T16:44:34.403Z,22.89
2022-09-21T16:47:05.190Z,23.06
2022-09-21T16:49:35.182Z,23.16
2022-09-21T16:52:03.603Z,23.23
2022-09-21T16:54:31.835Z,23.16
2022-09-21T16:57:01.875Z,23.09
2022-09-21T16:59:30.202Z,23.01
2022-09-21T17:02:00.561Z,22.92
2022-09-21T17:04:31.547Z,22.86
2022-09-21T17:07:00.481Z,22.84
2022-09-21T17:09:32.451Z,22.68
2022-09-21T17:12:01.585Z,22.34
2022-09-21T17:14:35.225Z,22.00
2022-09-21T17:17:05.790Z,21.65
2022-09-21T17:19:35.887Z,21.26
2022-09-21T17:22:04.576Z,20.90
2022-09-21T17:24:49.626Z,20.56
2022-09-21T17:27:19.711Z,20.17
2022-09-21T17:29:49.476Z,19.87
2022-09-21T17:32:20.283Z,19.64
2022-09-21T17:34:56.298Z,19.42
2022-09-21T17:37:24.293Z,19.23
2022-09-21T17:39:53.892Z,19.11
2022-09-21T17:42:25.881Z,18.95
2022-09-21T17:45:14.629Z,18.81
2022-09-21T17:47:43.153Z,18.66
2022-09-21T17:50:24.141Z,18.54
2022-09-21T17:53:10.117Z,18.41
2022-09-21T17:55:39.182Z,18.29
2022-09-21T17:58:17.943Z,18.21
2022-09-21T18:00:53.925Z,18.11
2022-09-21T18:03:24.661Z,17.99
2022-09-21T18:05:59.362Z,17.88
2022-09-21T18:08:28.063Z,17.77
2022-09-21T18:11:07.188Z,17.67
2022-09-21T18:13:44.476Z,17.56
2022-09-21T18:16:27.182Z,17.45
2022-09-21T18:19:05.737Z,17.34
2022-09-21T18:21:39.208Z,17.23
2022-09-21T18:24:16.116Z,17.14
2022-09-21T18:26:44.731Z,17.04
2022-09-21T18:29:38.896Z,16.94
2022-09-21T18:32:28.384Z,16.87
2022-09-21T18:35:19.476Z,16.79
2022-09-21T18:37:59.616Z,16.73
2022-09-21T18:40:37.017Z,16.66
2022-09-21T18:43:17.620Z,16.61
2022-09-21T18:45:48.595Z,16.56
2022-09-21T18:48:28.268Z,16.53
2022-09-21T18:51:04.802Z,16.49
2022-09-21T18:53:45.212Z,16.46
2022-09-21T18:56:13.970Z,16.41
2022-09-21T18:58:43.118Z,16.37
2022-09-21T19:01:13.538Z,16.33
2022-09-21T19:03:43.983Z,16.30
2022-09-21T19:06:25.429Z,16.26
2022-09-21T19:09:02.962Z,16.22
2022-09-21T19:11:38.164Z,16.18
2022-09-21T19:14:13.871Z,16.14
2022-09-21T19:16:49.003Z,16.13
2022-09-21T19:19:30.112Z,16.09
2022-09-21T19:22:04.963Z,16.06
2022-09-21T19:24:41.413Z,16.02
2022-09-21T19:27:19.217Z,15.98
2022-09-21T19:29:57.988Z,15.95
2022-09-21T19:32:35.498Z,15.93
2022-09-21T19:35:16.649Z,15.89
2022-09-21T19:37:44.851Z,15.86
2022-09-21T19:40:15.394Z,15.82
2022-09-21T19:42:55.696Z,15.80
2022-09-21T19:45:27.950Z,15.76
2022-09-21T19:48:00.010Z,15.72
2022-09-21T19:50:40.074Z,15.70
2022-09-21T19:53:28.409Z,15.64
2022-09-21T19:56:12.872Z,15.61
2022-09-21T19:58:58.734Z,15.55
2022-09-21T20:01:28.836Z,15.49
2022-09-21T20:03:57.124Z,15.47
2022-09-21T20:06:38.812Z,15.42
2022-09-21T20:09:13.782Z,15.38
2022-09-21T20:11:51.584Z,15.35
2022-09-21T20:14:33.444Z,15.31
2022-09-21T20:17:08.565Z,15.28
2022-09-21T20:19:44.486Z,15.27
2022-09-21T20:22:15.337Z,15.25
2022-09-21T20:24:56.340Z,15.24
2022-09-21T20:27:34.721Z,15.23
2022-09-21T20:30:02.943Z,15.21
2022-09-21T20:32:31.930Z,15.19
2022-09-21T20:34:59.953Z,15.17
2022-09-21T20:37:30.203Z,15.16
2022-09-21T20:40:05.283Z,15.15
2022-09-21T20:42:38.352Z,15.13
2022-09-21T20:45:08.282Z,15.10
2022-09-21T20:47:36.730Z,15.09
2022-09-21T20:50:05.136Z,15.09
2022-09-21T20:52:34.314Z,15.04
2022-09-21T20:55:02.273Z,15.01
2022-09-21T20:57:30.221Z,14.98
2022-09-21T21:00:00.491Z,14.94
2022-09-21T21:02:54.489Z,14.88
2022-09-21T21:05:22.347Z,14.83
2022-09-21T21:07:50.220Z,14.77
2022-09-21T21:10:19.101Z,14.74
2022-09-21T21:12:46.991Z,14.69
2022-09-21T21:15:16.707Z,14.68
2022-09-21T21:17:44.705Z,14.63
2022-09-21T21:20:12.995Z,14.57
2022-09-21T21:22:40.934Z,14.52
2022-09-21T21:25:09.979Z,14.47
2022-09-21T21:27:38.568Z,14.43
2022-09-21T21:30:08.161Z,14.40
2022-09-21T21:32:37.887Z,14.38
2022-09-21T21:35:06.950Z,14.36
2022-09-21T21:37:34.910Z,14.35
2022-09-21T21:40:03.379Z,14.34
2022-09-21T21:42:31.714Z,14.34
2022-09-21T21:44:59.665Z,14.35
2022-09-21T21:47:39.450Z,14.36
2022-09-21T21:50:10.913Z,14.37
2022-09-21T21:52:39.147Z,14.37
2022-09-21T21:55:07.909Z,14.37
2022-09-21T21:57:36.034Z,14.38
2022-09-21T22:00:04.079Z,14.37
2022-09-21T22:02:32.472Z,14.37
2022-09-21T22:05:00.412Z,14.36
2022-09-21T22:07:29.664Z,14.35
2022-09-21T22:09:57.641Z,14.34
2022-09-21T22:12:26.222Z,14.32
2022-09-21T22:14:54.147Z,14.30
2022-09-21T22:17:21.997Z,14.28
2022-09-21T22:19:49.883Z,14.25
2022-09-21T22:22:17.827Z,14.23
2022-09-21T22:24:48.095Z,14.19
2022-09-21T22:27:16.499Z,14.15
2022-09-21T22:29:44.478Z,14.09
2022-09-21T22:32:12.395Z,14.04
2022-09-21T22:34:40.254Z,13.98
2022-09-21T22:37:08.219Z,13.92
2022-09-21T22:39:36.293Z,13.87
2022-09-21T22:42:05.985Z,13.81
2022-09-21T22:44:34.036Z,13.79
2022-09-21T22:47:01.944Z,13.76
2022-09-21T22:49:29.905Z,13.72
2022-09-21T22:51:57.856Z,13.67
2022-09-21T22:54:27.741Z,13.64
2022-09-21T22:56:55.588Z,13.55
2022-09-21T22:59:25.767Z,13.50
2022-09-21T23:01:54.292Z,13.47
2022-09-21T23:04:22.342Z,13.44
2022-09-21T23:06:51.305Z,13.42
2022-09-21T23:09:21.897Z,13.40
2022-09-21T23:11:53.255Z,13.41
2022-09-21T23:14:22.539Z,13.40
2022-09-21T23:16:51.871Z,13.40
2022-09-21T23:19:19.985Z,13.39
2022-09-21T23:21:50.716Z,13.37
2022-09-21T23:24:19.551Z,13.34
2022-09-21T23:26:51.210Z,13.31
2022-09-21T23:29:19.142Z,13.25
2022-09-21T23:31:47.122Z,13.22
2022-09-21T23:34:17.303Z,13.19
2022-09-21T23:36:46.372Z,13.19
2022-09-21T23:39:15.925Z,13.18
2022-09-21T23:41:44.505Z,13.17
2022-09-21T23:44:12.556Z,13.14
2022-09-21T23:46:41.371Z,13.12
2022-09-21T23:49:09.375Z,13.08
2022-09-21T23:51:38.711Z,13.05
2022-09-21T23:54:07.340Z,13.02
2022-09-21T23:56:35.444Z,12.98
2022-09-21T23:59:03.311Z,12.96
